sensor_id;sensor_type;location;lat;lon;timestamp;temperature;humidity
67557;DHT22;54387;53.526;49.300;2022-12-29T00:01:54;-4.40;61.50
67557;DHT22;54387;53.526;49.300;2022-12-29T00:04:28;-4.40;61.50
67557;DHT22;54387;53.526;49.300;2022-12-29T00:07:03;-4.30;61.60
67557;DHT22;54387;53.526;49.300;2022-12-29T00:09:39;-4.30;61.50
67557;DHT22;54387;53.526;49.300;2022-12-29T00:12:13;-4.30;61.60
67557;DHT22;54387;53.526;49.300;2022-12-29T00:14:45;-4.30;61.60
67557;DHT22;54387;53.526;49.300;2022-12-29T00:17:36;-4.30;61.60
67557;DHT22;54387;53.526;49.300;2022-12-29T00:20:09;-4.30;61.60
67557;DHT22;54387;53.526;49.300;2022-12-29T00:23:01;-4.30;61.60
67557;DHT22;54387;53.526;49.300;2022-12-29T00:25:52;-4.40;61.70
67557;DHT22;54387;53.526;49.300;2022-12-29T00:28:43;-4.30;61.60
67557;DHT22;54387;53.526;49.300;2022-12-29T00:31:37;-4.30;61.60
67557;DHT22;54387;53.526;49.300;2022-12-29T00:34:31;-4.40;62.20
67557;DHT22;54387;53.526;49.300;2022-12-29T00:37:21;-4.30;61.80
67557;DHT22;54387;53.526;49.300;2022-12-29T00:40:12;-4.30;61.80
67557;DHT22;54387;53.526;49.300;2022-12-29T00:43:07;-4.30;61.80
67557;DHT22;54387;53.526;49.300;2022-12-29T00:45:57;-4.30;61.90
67557;DHT22;54387;53.526;49.300;2022-12-29T00:48:29;-4.30;61.80
67557;DHT22;54387;53.526;49.300;2022-12-29T00:51:19;-4.30;61.90
67557;DHT22;54387;53.526;49.300;2022-12-29T00:53:50;-4.30;61.80
67557;DHT22;54387;53.526;49.300;2022-12-29T00:56:21;-4.30;61.80
67557;DHT22;54387;53.526;49.300;2022-12-29T00:58:53;-4.20;61.90
67557;DHT22;54387;53.526;49.300;2022-12-29T01:01:24;-4.20;61.90
67557;DHT22;54387;53.526;49.300;2022-12-29T01:03:58;-4.20;61.90
67557;DHT22;54387;53.526;49.300;2022-12-29T01:06:30;-4.20;61.80
67557;DHT22;54387;53.526;49.300;2022-12-29T01:09:05;-4.20;61.90
67557;DHT22;54387;53.526;49.300;2022-12-29T01:11:57;-4.20;61.90
67557;DHT22;54387;53.526;49.300;2022-12-29T01:14:29;-4.20;61.90
67557;DHT22;54387;53.526;49.300;2022-12-29T01:17:01;-4.20;62.00
67557;DHT22;54387;53.526;49.300;2022-12-29T01:19:36;-4.20;62.00
67557;DHT22;54387;53.526;49.300;2022-12-29T01:22:10;-4.20;62.00
67557;DHT22;54387;53.526;49.300;2022-12-29T01:24:46;-4.20;62.10
67557;DHT22;54387;53.526;49.300;2022-12-29T01:27:17;-4.20;62.10
67557;DHT22;54387;53.526;49.300;2022-12-29T01:29:49;-4.30;62.10
67557;DHT22;54387;53.526;49.300;2022-12-29T01:32:22;-4.30;62.20
67557;DHT22;54387;53.526;49.300;2022-12-29T01:34:54;-4.20;62.20
67557;DHT22;54387;53.526;49.300;2022-12-29T01:37:25;-4.20;62.20
67557;DHT22;54387;53.526;49.300;2022-12-29T01:40:00;-4.20;62.20
67557;DHT22;54387;53.526;49.300;2022-12-29T01:42:32;-4.30;62.20
67557;DHT22;54387;53.526;49.300;2022-12-29T01:45:08;-4.20;62.20
67557;DHT22;54387;53.526;49.300;2022-12-29T01:47:52;-4.20;62.30
67557;DHT22;54387;53.526;49.300;2022-12-29T01:55:31;-4.10;62.20
67557;DHT22;54387;53.526;49.300;2022-12-29T01:58:04;-4.10;62.20
67557;DHT22;54387;53.526;49.300;2022-12-29T02:00:40;-4.00;62.20
67557;DHT22;54387;53.526;49.300;2022-12-29T02:03:11;-4.00;62.20
67557;DHT22;54387;53.526;49.300;2022-12-29T02:06:10;-4.00;62.20
67557;DHT22;54387;53.526;49.300;2022-12-29T02:08:40;-4.00;62.20
67557;DHT22;54387;53.526;49.300;2022-12-29T02:11:13;-3.90;62.30
67557;DHT22;54387;53.526;49.300;2022-12-29T02:13:50;-3.90;62.40
67557;DHT22;54387;53.526;49.300;2022-12-29T02:19:26;-3.90;62.40
67557;DHT22;54387;53.526;49.300;2022-12-29T02:33:09;-3.90;62.60
67557;DHT22;54387;53.526;49.300;2022-12-29T02:46:23;-3.70;62.80
67557;DHT22;54387;53.526;49.300;2022-12-29T02:49:06;-3.80;62.80
67557;DHT22;54387;53.526;49.300;2022-12-29T02:51:56;-3.70;62.80
67557;DHT22;54387;53.526;49.300;2022-12-29T02:54:29;-3.70;62.80
67557;DHT22;54387;53.526;49.300;2022-12-29T02:57:27;-3.70;62.80
67557;DHT22;54387;53.526;49.300;2022-12-29T03:00:02;-3.70;62.90
67557;DHT22;54387;53.526;49.300;2022-12-29T03:03:09;-3.70;62.90
67557;DHT22;54387;53.526;49.300;2022-12-29T03:08:28;-3.70;63.00
67557;DHT22;54387;53.526;49.300;2022-12-29T03:11:03;-3.70;63.00
67557;DHT22;54387;53.526;49.300;2022-12-29T03:19:10;-3.50;62.90
67557;DHT22;54387;53.526;49.300;2022-12-29T03:21:52;-3.50;62.80
67557;DHT22;54387;53.526;49.300;2022-12-29T03:24:43;-3.50;62.70
67557;DHT22;54387;53.526;49.300;2022-12-29T03:27:17;-3.60;62.70
67557;DHT22;54387;53.526;49.300;2022-12-29T03:29:51;-3.60;62.70
67557;DHT22;54387;53.526;49.300;2022-12-29T03:32:46;-3.50;62.70
67557;DHT22;54387;53.526;49.300;2022-12-29T03:35:19;-3.60;62.70
67557;DHT22;54387;53.526;49.300;2022-12-29T03:40:35;-3.50;62.70
67557;DHT22;54387;53.526;49.300;2022-12-29T03:43:08;-3.50;62.70
67557;DHT22;54387;53.526;49.300;2022-12-29T03:45:39;-3.50;62.60
67557;DHT22;54387;53.526;49.300;2022-12-29T03:48:10;-3.50;62.60
67557;DHT22;54387;53.526;49.300;2022-12-29T03:50:42;-3.50;62.50
67557;DHT22;54387;53.526;49.300;2022-12-29T03:53:13;-3.50;62.50
67557;DHT22;54387;53.526;49.300;2022-12-29T03:55:44;-3.50;62.50
67557;DHT22;54387;53.526;49.300;2022-12-29T03:58:15;-3.50;62.60
67557;DHT22;54387;53.526;49.300;2022-12-29T04:00:47;-3.60;62.60
67557;DHT22;54387;53.526;49.300;2022-12-29T04:03:18;-3.60;62.60
67557;DHT22;54387;53.526;49.300;2022-12-29T04:05:49;-3.60;62.70
67557;DHT22;54387;53.526;49.300;2022-12-29T04:08:20;-3.60;62.70
67557;DHT22;54387;53.526;49.300;2022-12-29T04:10:51;-3.60;62.70
67557;DHT22;54387;53.526;49.300;2022-12-29T04:13:23;-3.60;62.80
67557;DHT22;54387;53.526;49.300;2022-12-29T04:15:54;-3.60;62.80
67557;DHT22;54387;53.526;49.300;2022-12-29T04:18:25;-3.60;62.80
67557;DHT22;54387;53.526;49.300;2022-12-29T04:20:56;-3.50;62.80
67557;DHT22;54387;53.526;49.300;2022-12-29T04:23:32;-3.50;62.70
67557;DHT22;54387;53.526;49.300;2022-12-29T04:26:03;-3.50;62.60
67557;DHT22;54387;53.526;49.300;2022-12-29T04:28:37;-3.50;62.60
67557;DHT22;54387;53.526;49.300;2022-12-29T04:31:13;-3.50;62.70
67557;DHT22;54387;53.526;49.300;2022-12-29T04:33:44;-3.50;62.80
67557;DHT22;54387;53.526;49.300;2022-12-29T04:36:16;-3.50;62.60
67557;DHT22;54387;53.526;49.300;2022-12-29T04:38:48;-3.50;62.50
67557;DHT22;54387;53.526;49.300;2022-12-29T04:41:19;-3.50;62.60
67557;DHT22;54387;53.526;49.300;2022-12-29T04:43:51;-3.50;62.70
67557;DHT22;54387;53.526;49.300;2022-12-29T04:46:22;-3.50;62.70
67557;DHT22;54387;53.526;49.300;2022-12-29T04:48:53;-3.50;62.50
67557;DHT22;54387;53.526;49.300;2022-12-29T04:51:25;-3.50;62.50
67557;DHT22;54387;53.526;49.300;2022-12-29T04:53:56;-3.50;62.60
67557;DHT22;54387;53.526;49.300;2022-12-29T04:56:27;-3.50;62.60
67557;DHT22;54387;53.526;49.300;2022-12-29T04:58:58;-3.40;62.80
67557;DHT22;54387;53.526;49.300;2022-12-29T05:01:29;-3.40;62.60
67557;DHT22;54387;53.526;49.300;2022-12-29T05:04:01;-3.40;62.60
67557;DHT22;54387;53.526;49.300;2022-12-29T05:06:32;-3.40;62.70
67557;DHT22;54387;53.526;49.300;2022-12-29T05:09:03;-3.40;62.70
67557;DHT22;54387;53.526;49.300;2022-12-29T05:11:34;-3.40;62.70
67557;DHT22;54387;53.526;49.300;2022-12-29T05:14:06;-3.30;62.80
67557;DHT22;54387;53.526;49.300;2022-12-29T05:16:37;-3.30;62.80
67557;DHT22;54387;53.526;49.300;2022-12-29T05:19:08;-3.30;62.80
67557;DHT22;54387;53.526;49.300;2022-12-29T05:21:39;-3.30;62.70
67557;DHT22;54387;53.526;49.300;2022-12-29T05:24:10;-3.30;62.70
67557;DHT22;54387;53.526;49.300;2022-12-29T05:26:41;-3.30;62.70
67557;DHT22;54387;53.526;49.300;2022-12-29T05:29:13;-3.20;62.80
67557;DHT22;54387;53.526;49.300;2022-12-29T05:31:44;-3.20;62.80
67557;DHT22;54387;53.526;49.300;2022-12-29T05:34:15;-3.10;62.70
67557;DHT22;54387;53.526;49.300;2022-12-29T05:36:47;-3.10;62.60
67557;DHT22;54387;53.526;49.300;2022-12-29T05:39:18;-3.10;62.60
67557;DHT22;54387;53.526;49.300;2022-12-29T05:41:49;-3.00;62.60
67557;DHT22;54387;53.526;49.300;2022-12-29T05:44:21;-3.00;62.60
67557;DHT22;54387;53.526;49.300;2022-12-29T05:46:52;-3.00;62.60
67557;DHT22;54387;53.526;49.300;2022-12-29T05:49:23;-3.00;62.50
67557;DHT22;54387;53.526;49.300;2022-12-29T05:51:54;-3.00;62.50
67557;DHT22;54387;53.526;49.300;2022-12-29T05:54:25;-3.00;62.40
67557;DHT22;54387;53.526;49.300;2022-12-29T05:56:57;-3.00;62.40
67557;DHT22;54387;53.526;49.300;2022-12-29T05:59:28;-3.00;62.30
67557;DHT22;54387;53.526;49.300;2022-12-29T06:01:59;-2.90;62.50
67557;DHT22;54387;53.526;49.300;2022-12-29T06:04:30;-2.90;62.50
67557;DHT22;54387;53.526;49.300;2022-12-29T06:07:02;-2.80;62.50
67557;DHT22;54387;53.526;49.300;2022-12-29T06:09:33;-2.80;62.40
67557;DHT22;54387;53.526;49.300;2022-12-29T06:12:05;-2.80;62.40
67557;DHT22;54387;53.526;49.300;2022-12-29T06:14:37;-2.70;62.40
67557;DHT22;54387;53.526;49.300;2022-12-29T06:17:08;-2.70;62.30
67557;DHT22;54387;53.526;49.300;2022-12-29T06:19:40;-2.70;62.40
67557;DHT22;54387;53.526;49.300;2022-12-29T06:22:11;-2.70;62.40
67557;DHT22;54387;53.526;49.300;2022-12-29T06:24:43;-2.70;62.30
67557;DHT22;54387;53.526;49.300;2022-12-29T06:27:14;-2.70;62.20
67557;DHT22;54387;53.526;49.300;2022-12-29T06:29:45;-2.70;62.20
67557;DHT22;54387;53.526;49.300;2022-12-29T06:32:17;-2.70;62.30
67557;DHT22;54387;53.526;49.300;2022-12-29T06:34:48;-2.70;62.20
67557;DHT22;54387;53.526;49.300;2022-12-29T06:37:19;-2.70;62.80
67557;DHT22;54387;53.526;49.300;2022-12-29T06:39:52;-2.70;62.20
67557;DHT22;54387;53.526;49.300;2022-12-29T06:42:23;-2.70;62.20
67557;DHT22;54387;53.526;49.300;2022-12-29T06:44:55;-2.60;62.30
67557;DHT22;54387;53.526;49.300;2022-12-29T06:47:29;-2.60;62.20
67557;DHT22;54387;53.526;49.300;2022-12-29T06:50:01;-2.50;62.20
67557;DHT22;54387;53.526;49.300;2022-12-29T06:52:33;-2.50;62.20
67557;DHT22;54387;53.526;49.300;2022-12-29T06:55:05;-2.50;62.70
67557;DHT22;54387;53.526;49.300;2022-12-29T06:57:36;-2.40;62.10
67557;DHT22;54387;53.526;49.300;2022-12-29T07:00:07;-2.40;62.20
67557;DHT22;54387;53.526;49.300;2022-12-29T07:02:39;-2.30;62.20
67557;DHT22;54387;53.526;49.300;2022-12-29T07:05:10;-2.30;62.10
67557;DHT22;54387;53.526;49.300;2022-12-29T07:07:41;-2.20;62.20
67557;DHT22;54387;53.526;49.300;2022-12-29T07:10:13;-2.20;62.10
67557;DHT22;54387;53.526;49.300;2022-12-29T07:12:44;-2.10;62.00
67557;DHT22;54387;53.526;49.300;2022-12-29T07:15:16;-2.10;61.90
67557;DHT22;54387;53.526;49.300;2022-12-29T07:17:48;-2.00;61.90
67557;DHT22;54387;53.526;49.300;2022-12-29T07:20:20;-2.00;62.00
67557;DHT22;54387;53.526;49.300;2022-12-29T07:22:53;-2.00;62.00
67557;DHT22;54387;53.526;49.300;2022-12-29T07:25:24;-1.90;62.10
67557;DHT22;54387;53.526;49.300;2022-12-29T07:27:55;-1.90;62.00
67557;DHT22;54387;53.526;49.300;2022-12-29T07:30:28;-1.90;61.90
67557;DHT22;54387;53.526;49.300;2022-12-29T07:32:59;-1.90;61.90
67557;DHT22;54387;53.526;49.300;2022-12-29T07:35:33;-2.00;61.90
67557;DHT22;54387;53.526;49.300;2022-12-29T07:38:05;-2.00;61.90
67557;DHT22;54387;53.526;49.300;2022-12-29T07:40:37;-2.00;62.00
67557;DHT22;54387;53.526;49.300;2022-12-29T07:43:08;-1.90;62.10
67557;DHT22;54387;53.526;49.300;2022-12-29T07:45:39;-1.90;62.00
67557;DHT22;54387;53.526;49.300;2022-12-29T07:48:11;-1.90;62.00
67557;DHT22;54387;53.526;49.300;2022-12-29T07:50:42;-1.90;61.90
67557;DHT22;54387;53.526;49.300;2022-12-29T07:53:14;-1.80;61.90
67557;DHT22;54387;53.526;49.300;2022-12-29T07:55:46;-1.80;61.90
67557;DHT22;54387;53.526;49.300;2022-12-29T07:58:17;-1.80;61.70
67557;DHT22;54387;53.526;49.300;2022-12-29T08:00:53;-1.90;61.80
67557;DHT22;54387;53.526;49.300;2022-12-29T08:03:29;-1.90;61.90
67557;DHT22;54387;53.526;49.300;2022-12-29T08:06:00;-1.90;61.90
67557;DHT22;54387;53.526;49.300;2022-12-29T08:08:32;-1.80;61.90
67557;DHT22;54387;53.526;49.300;2022-12-29T08:11:03;-1.80;62.00
67557;DHT22;54387;53.526;49.300;2022-12-29T08:13:34;-1.70;62.10
67557;DHT22;54387;53.526;49.300;2022-12-29T08:16:06;-1.70;62.10
67557;DHT22;54387;53.526;49.300;2022-12-29T08:18:38;-1.70;62.20
67557;DHT22;54387;53.526;49.300;2022-12-29T08:21:09;-1.60;62.20
67557;DHT22;54387;53.526;49.300;2022-12-29T08:23:41;-1.60;62.20
67557;DHT22;54387;53.526;49.300;2022-12-29T08:26:12;-1.50;62.30
67557;DHT22;54387;53.526;49.300;2022-12-29T08:28:43;-1.40;62.40
67557;DHT22;54387;53.526;49.300;2022-12-29T08:31:14;-1.30;62.40
67557;DHT22;54387;53.526;49.300;2022-12-29T08:33:46;-1.20;62.20
67557;DHT22;54387;53.526;49.300;2022-12-29T08:36:17;-1.20;62.00
67557;DHT22;54387;53.526;49.300;2022-12-29T08:38:48;-1.20;61.80
67557;DHT22;54387;53.526;49.300;2022-12-29T08:41:20;-1.30;61.80
67557;DHT22;54387;53.526;49.300;2022-12-29T08:43:51;-1.30;62.00
67557;DHT22;54387;53.526;49.300;2022-12-29T08:46:26;-1.30;62.10
67557;DHT22;54387;53.526;49.300;2022-12-29T08:48:59;-1.20;62.20
67557;DHT22;54387;53.526;49.300;2022-12-29T08:51:31;-1.20;62.20
67557;DHT22;54387;53.526;49.300;2022-12-29T08:54:02;-1.20;62.30
67557;DHT22;54387;53.526;49.300;2022-12-29T08:56:33;-1.10;62.30
67557;DHT22;54387;53.526;49.300;2022-12-29T08:59:08;-1.10;62.30
67557;DHT22;54387;53.526;49.300;2022-12-29T09:01:39;-1.00;62.40
67557;DHT22;54387;53.526;49.300;2022-12-29T09:04:11;-0.90;62.40
67557;DHT22;54387;53.526;49.300;2022-12-29T09:06:43;-0.90;62.50
67557;DHT22;54387;53.526;49.300;2022-12-29T09:09:14;-0.80;62.50
67557;DHT22;54387;53.526;49.300;2022-12-29T09:11:46;-0.80;62.50
67557;DHT22;54387;53.526;49.300;2022-12-29T09:14:17;-0.70;62.50
67557;DHT22;54387;53.526;49.300;2022-12-29T09:16:50;-0.70;62.00
67557;DHT22;54387;53.526;49.300;2022-12-29T09:19:40;-0.70;61.90
67557;DHT22;54387;53.526;49.300;2022-12-29T09:22:12;-0.70;61.40
67557;DHT22;54387;53.526;49.300;2022-12-29T09:24:43;-0.80;61.20
67557;DHT22;54387;53.526;49.300;2022-12-29T09:27:14;-0.90;61.00
67557;DHT22;54387;53.526;49.300;2022-12-29T09:29:45;-1.00;60.80
67557;DHT22;54387;53.526;49.300;2022-12-29T09:32:17;-1.10;60.90
67557;DHT22;54387;53.526;49.300;2022-12-29T09:34:49;-1.10;60.70
67557;DHT22;54387;53.526;49.300;2022-12-29T09:37:21;-1.20;60.50
67557;DHT22;54387;53.526;49.300;2022-12-29T09:39:55;-1.20;60.50
67557;DHT22;54387;53.526;49.300;2022-12-29T09:45:14;-1.20;61.00
67557;DHT22;54387;53.526;49.300;2022-12-29T09:47:46;-1.10;61.10
67557;DHT22;54387;53.526;49.300;2022-12-29T09:52:50;-0.90;61.10
67557;DHT22;54387;53.526;49.300;2022-12-29T09:55:33;-0.80;61.00
67557;DHT22;54387;53.526;49.300;2022-12-29T09:58:52;-0.80;60.80
67557;DHT22;54387;53.526;49.300;2022-12-29T10:01:08;-0.80;60.70
67557;DHT22;54387;53.526;49.300;2022-12-29T10:03:49;-0.90;60.80
67557;DHT22;54387;53.526;49.300;2022-12-29T10:20:20;-1.00;60.40
67557;DHT22;54387;53.526;49.300;2022-12-29T10:23:04;-0.90;60.80
67557;DHT22;54387;53.526;49.300;2022-12-29T10:25:41;-0.80;60.90
67557;DHT22;54387;53.526;49.300;2022-12-29T10:30:48;-0.50;60.80
67557;DHT22;54387;53.526;49.300;2022-12-29T10:33:25;-0.50;60.60
67557;DHT22;54387;53.526;49.300;2022-12-29T10:35:57;-0.50;60.60
67557;DHT22;54387;53.526;49.300;2022-12-29T10:38:33;-0.60;60.60
67557;DHT22;54387;53.526;49.300;2022-12-29T10:43:57;-0.60;60.80
67557;DHT22;54387;53.526;49.300;2022-12-29T10:46:35;-0.50;60.90
67557;DHT22;54387;53.526;49.300;2022-12-29T10:49:12;-0.50;60.90
67557;DHT22;54387;53.526;49.300;2022-12-29T10:51:46;-0.50;60.60
67557;DHT22;54387;53.526;49.300;2022-12-29T10:54:20;-0.60;60.20
67557;DHT22;54387;53.526;49.300;2022-12-29T10:56:54;-0.80;60.30
67557;DHT22;54387;53.526;49.300;2022-12-29T10:59:29;-0.80;60.30
67557;DHT22;54387;53.526;49.300;2022-12-29T11:04:39;-1.00;60.30
67557;DHT22;54387;53.526;49.300;2022-12-29T11:07:14;-1.00;60.40
67557;DHT22;54387;53.526;49.300;2022-12-29T11:09:46;-1.00;60.50
67557;DHT22;54387;53.526;49.300;2022-12-29T11:12:22;-1.00;60.20
67557;DHT22;54387;53.526;49.300;2022-12-29T11:17:50;-1.00;60.30
67557;DHT22;54387;53.526;49.300;2022-12-29T11:20:30;-1.00;60.20
67557;DHT22;54387;53.526;49.300;2022-12-29T11:23:01;-1.10;60.30
67557;DHT22;54387;53.526;49.300;2022-12-29T11:25:34;-1.10;60.30
67557;DHT22;54387;53.526;49.300;2022-12-29T11:28:14;-1.10;60.00
67557;DHT22;54387;53.526;49.300;2022-12-29T11:30:45;-1.20;60.10
67557;DHT22;54387;53.526;49.300;2022-12-29T11:33:32;-1.30;60.00
67557;DHT22;54387;53.526;49.300;2022-12-29T11:36:16;-1.40;59.20
67557;DHT22;54387;53.526;49.300;2022-12-29T11:38:52;-1.50;59.40
67557;DHT22;54387;53.526;49.300;2022-12-29T11:41:25;-1.60;59.90
67557;DHT22;54387;53.526;49.300;2022-12-29T11:43:58;-1.70;60.10
67557;DHT22;54387;53.526;49.300;2022-12-29T11:46:31;-1.70;60.40
67557;DHT22;54387;53.526;49.300;2022-12-29T11:49:03;-1.70;60.50
67557;DHT22;54387;53.526;49.300;2022-12-29T11:51:45;-1.60;60.60
67557;DHT22;54387;53.526;49.300;2022-12-29T11:54:24;-1.60;60.50
67557;DHT22;54387;53.526;49.300;2022-12-29T11:56:57;-1.70;60.50
67557;DHT22;54387;53.526;49.300;2022-12-29T12:02:13;-1.70;60.60
67557;DHT22;54387;53.526;49.300;2022-12-29T12:04:46;-1.80;60.60
67557;DHT22;54387;53.526;49.300;2022-12-29T12:07:22;-1.80;60.70
67557;DHT22;54387;53.526;49.300;2022-12-29T12:09:57;-1.80;60.70
67557;DHT22;54387;53.526;49.300;2022-12-29T12:12:41;-1.90;60.40
67557;DHT22;54387;53.526;49.300;2022-12-29T12:15:22;-1.90;60.50
67557;DHT22;54387;53.526;49.300;2022-12-29T12:18:08;-2.00;60.60
67557;DHT22;54387;53.526;49.300;2022-12-29T12:20:52;-1.90;60.80
67557;DHT22;54387;53.526;49.300;2022-12-29T12:23:52;-1.90;61.00
67557;DHT22;54387;53.526;49.300;2022-12-29T12:26:30;-2.00;60.80
67557;DHT22;54387;53.526;49.300;2022-12-29T12:31:59;-2.10;60.80
67557;DHT22;54387;53.526;49.300;2022-12-29T12:34:35;-2.10;60.80
67557;DHT22;54387;53.526;49.300;2022-12-29T13:01:38;-2.70;61.20
67557;DHT22;54387;53.526;49.300;2022-12-29T13:10:00;-2.70;61.30
67557;DHT22;54387;53.526;49.300;2022-12-29T13:21:09;-2.90;61.20
67557;DHT22;54387;53.526;49.300;2022-12-29T13:23:49;-2.90;61.50
67557;DHT22;54387;53.526;49.300;2022-12-29T13:26:39;-2.90;61.60
67557;DHT22;54387;53.526;49.300;2022-12-29T13:29:36;-2.90;61.70
67557;DHT22;54387;53.526;49.300;2022-12-29T13:37:53;-2.80;61.80
67557;DHT22;54387;53.526;49.300;2022-12-29T13:40:28;-2.80;61.70
67557;DHT22;54387;53.526;49.300;2022-12-29T13:43:05;-2.80;61.50
67557;DHT22;54387;53.526;49.300;2022-12-29T13:45:37;-2.80;61.60
67557;DHT22;54387;53.526;49.300;2022-12-29T13:48:17;-2.70;61.70
67557;DHT22;54387;53.526;49.300;2022-12-29T13:50:57;-2.70;61.90
67557;DHT22;54387;53.526;49.300;2022-12-29T13:56:14;-2.70;61.70
67557;DHT22;54387;53.526;49.300;2022-12-29T13:58:54;-2.70;61.60
67557;DHT22;54387;53.526;49.300;2022-12-29T14:01:30;-2.80;61.50
67557;DHT22;54387;53.526;49.300;2022-12-29T14:04:25;-2.80;61.50
67557;DHT22;54387;53.526;49.300;2022-12-29T14:07:02;-2.90;61.60
67557;DHT22;54387;53.526;49.300;2022-12-29T14:15:02;-2.80;61.70
67557;DHT22;54387;53.526;49.300;2022-12-29T14:17:34;-2.80;61.50
67557;DHT22;54387;53.526;49.300;2022-12-29T14:20:06;-2.90;61.60
67557;DHT22;54387;53.526;49.300;2022-12-29T14:23:00;-3.00;61.70
67557;DHT22;54387;53.526;49.300;2022-12-29T14:28:24;-3.00;61.90
67557;DHT22;54387;53.526;49.300;2022-12-29T14:30:56;-3.10;61.80
67557;DHT22;54387;53.526;49.300;2022-12-29T14:33:29;-3.10;61.90
67557;DHT22;54387;53.526;49.300;2022-12-29T14:36:22;-3.20;62.00
67557;DHT22;54387;53.526;49.300;2022-12-29T14:38:56;-3.20;62.10
67557;DHT22;54387;53.526;49.300;2022-12-29T14:41:29;-3.20;62.10
67557;DHT22;54387;53.526;49.300;2022-12-29T14:46:55;-3.20;62.30
67557;DHT22;54387;53.526;49.300;2022-12-29T14:49:33;-3.10;62.40
67557;DHT22;54387;53.526;49.300;2022-12-29T14:52:21;-3.10;62.20
67557;DHT22;54387;53.526;49.300;2022-12-29T14:57:51;-3.00;62.30
67557;DHT22;54387;53.526;49.300;2022-12-29T15:00:24;-3.00;62.30
67557;DHT22;54387;53.526;49.300;2022-12-29T15:08:49;-2.90;62.50
67557;DHT22;54387;53.526;49.300;2022-12-29T15:11:31;-2.90;62.30
67557;DHT22;54387;53.526;49.300;2022-12-29T15:17:08;-2.90;62.10
67557;DHT22;54387;53.526;49.300;2022-12-29T15:19:41;-3.00;62.10
67557;DHT22;54387;53.526;49.300;2022-12-29T15:22:12;-3.10;62.10
67557;DHT22;54387;53.526;49.300;2022-12-29T15:24:44;-3.10;62.30
67557;DHT22;54387;53.526;49.300;2022-12-29T15:27:17;-3.10;62.30
67557;DHT22;54387;53.526;49.300;2022-12-29T15:29:59;-3.10;62.30
67557;DHT22;54387;53.526;49.300;2022-12-29T15:32:40;-3.10;62.30
67557;DHT22;54387;53.526;49.300;2022-12-29T15:35:37;-3.10;62.40
67557;DHT22;54387;53.526;49.300;2022-12-29T15:38:15;-3.10;62.40
67557;DHT22;54387;53.526;49.300;2022-12-29T15:40:48;-3.00;62.50
67557;DHT22;54387;53.526;49.300;2022-12-29T15:46:00;-3.00;62.70
67557;DHT22;54387;53.526;49.300;2022-12-29T15:48:32;-2.90;62.70
67557;DHT22;54387;53.526;49.300;2022-12-29T15:51:03;-2.90;62.70
67557;DHT22;54387;53.526;49.300;2022-12-29T15:53:42;-2.80;62.70
67557;DHT22;54387;53.526;49.300;2022-12-29T15:56:17;-2.80;62.80
67557;DHT22;54387;53.526;49.300;2022-12-29T15:58:50;-2.70;62.90
67557;DHT22;54387;53.526;49.300;2022-12-29T16:01:32;-2.70;62.80
67557;DHT22;54387;53.526;49.300;2022-12-29T16:04:07;-2.60;62.80
67557;DHT22;54387;53.526;49.300;2022-12-29T16:06:44;-2.60;62.80
67557;DHT22;54387;53.526;49.300;2022-12-29T16:09:32;-2.60;62.90
67557;DHT22;54387;53.526;49.300;2022-12-29T16:12:13;-2.60;62.90
67557;DHT22;54387;53.526;49.300;2022-12-29T16:14:46;-2.50;63.00
67557;DHT22;54387;53.526;49.300;2022-12-29T16:17:20;-2.50;63.00
67557;DHT22;54387;53.526;49.300;2022-12-29T16:19:53;-2.40;63.10
67557;DHT22;54387;53.526;49.300;2022-12-29T16:22:29;-2.30;63.10
67557;DHT22;54387;53.526;49.300;2022-12-29T16:25:03;-2.30;63.00
67557;DHT22;54387;53.526;49.300;2022-12-29T16:27:37;-2.30;63.00
67557;DHT22;54387;53.526;49.300;2022-12-29T16:30:22;-2.30;63.10
67557;DHT22;54387;53.526;49.300;2022-12-29T16:32:55;-2.20;63.10
67557;DHT22;54387;53.526;49.300;2022-12-29T16:38:20;-2.20;63.20
67557;DHT22;54387;53.526;49.300;2022-12-29T16:40:56;-2.20;63.00
67557;DHT22;54387;53.526;49.300;2022-12-29T16:43:32;-2.20;62.90
67557;DHT22;54387;53.526;49.300;2022-12-29T16:48:54;-2.20;63.20
67557;DHT22;54387;53.526;49.300;2022-12-29T16:51:33;-2.20;63.20
67557;DHT22;54387;53.526;49.300;2022-12-29T16:54:05;-2.20;63.10
67557;DHT22;54387;53.526;49.300;2022-12-29T16:56:36;-2.20;63.20
67557;DHT22;54387;53.526;49.300;2022-12-29T17:01:47;-2.30;63.20
67557;DHT22;54387;53.526;49.300;2022-12-29T17:04:18;-2.30;63.20
67557;DHT22;54387;53.526;49.300;2022-12-29T17:06:49;-2.30;63.20
67557;DHT22;54387;53.526;49.300;2022-12-29T17:09:21;-2.30;63.30
67557;DHT22;54387;53.526;49.300;2022-12-29T17:11:54;-2.30;63.30
67557;DHT22;54387;53.526;49.300;2022-12-29T17:14:48;-2.30;63.40
67557;DHT22;54387;53.526;49.300;2022-12-29T17:19:55;-2.30;63.30
67557;DHT22;54387;53.526;49.300;2022-12-29T17:22:29;-2.30;63.20
67557;DHT22;54387;53.526;49.300;2022-12-29T17:25:01;-2.30;63.10
67557;DHT22;54387;53.526;49.300;2022-12-29T17:27:35;-2.40;62.90
67557;DHT22;54387;53.526;49.300;2022-12-29T17:30:12;-2.50;63.00
67557;DHT22;54387;53.526;49.300;2022-12-29T17:32:45;-2.50;63.20
67557;DHT22;54387;53.526;49.300;2022-12-29T17:35:19;-2.60;63.10
67557;DHT22;54387;53.526;49.300;2022-12-29T17:37:50;-2.60;63.00
67557;DHT22;54387;53.526;49.300;2022-12-29T17:40:23;-2.70;63.10
67557;DHT22;54387;53.526;49.300;2022-12-29T17:42:56;-2.70;63.10
67557;DHT22;54387;53.526;49.300;2022-12-29T17:45:31;-2.80;63.10
67557;DHT22;54387;53.526;49.300;2022-12-29T17:48:14;-2.90;63.00
67557;DHT22;54387;53.526;49.300;2022-12-29T17:50:46;-2.90;63.00
67557;DHT22;54387;53.526;49.300;2022-12-29T17:53:19;-3.00;62.90
67557;DHT22;54387;53.526;49.300;2022-12-29T17:55:51;-3.10;62.90
67557;DHT22;54387;53.526;49.300;2022-12-29T17:58:23;-3.20;62.90
67557;DHT22;54387;53.526;49.300;2022-12-29T18:00:55;-3.30;62.80
67557;DHT22;54387;53.526;49.300;2022-12-29T18:03:28;-3.30;62.80
67557;DHT22;54387;53.526;49.300;2022-12-29T18:06:00;-3.40;62.80
67557;DHT22;54387;53.526;49.300;2022-12-29T18:08:35;-3.50;62.70
67557;DHT22;54387;53.526;49.300;2022-12-29T18:11:40;-3.60;62.80
67557;DHT22;54387;53.526;49.300;2022-12-29T18:14:05;-3.70;62.80
67557;DHT22;54387;53.526;49.300;2022-12-29T18:16:41;-3.80;62.80
67557;DHT22;54387;53.526;49.300;2022-12-29T18:19:12;-3.90;62.80
67557;DHT22;54387;53.526;49.300;2022-12-29T18:21:43;-4.00;62.80
67557;DHT22;54387;53.526;49.300;2022-12-29T18:24:16;-4.00;62.80
67557;DHT22;54387;53.526;49.300;2022-12-29T18:26:47;-4.10;62.70
67557;DHT22;54387;53.526;49.300;2022-12-29T18:29:18;-4.10;62.80
67557;DHT22;54387;53.526;49.300;2022-12-29T18:31:54;-4.20;62.90
67557;DHT22;54387;53.526;49.300;2022-12-29T18:34:26;-4.30;62.90
67557;DHT22;54387;53.526;49.300;2022-12-29T18:36:57;-4.30;62.90
67557;DHT22;54387;53.526;49.300;2022-12-29T18:39:29;-4.40;62.90
67557;DHT22;54387;53.526;49.300;2022-12-29T18:42:01;-4.50;62.90
67557;DHT22;54387;53.526;49.300;2022-12-29T18:44:32;-4.50;63.00